createdAt,value
2022-08-20T00:02:18.273Z,275.1828
2022-08-20T00:07:19.962Z,269.92593
2022-08-20T00:12:21.901Z,273.41176
2022-08-20T00:17:24.092Z,284.33149
2022-08-20T00:22:25.868Z,292.0226
2022-08-20T00:27:27.940Z,282.46154
2022-08-20T00:32:30.042Z,273.41176
2022-08-20T00:37:31.662Z,245.96078
2022-08-20T00:42:33.238Z,250.46766
2022-08-20T00:47:35.221Z,241.58454
2022-08-20T00:52:36.632Z,229.18519
2022-08-20T00:57:58.846Z,244.4878
2022-08-20T01:03:03.822Z,248.9505
2022-08-20T01:08:05.322Z,245.96078
2022-08-20T01:13:06.872Z,247.44828
2022-08-20T01:18:08.738Z,244.4878
2022-08-20T01:23:10.281Z,252
2022-08-20T01:28:11.979Z,261.52577
2022-08-20T01:33:14.378Z,252
2022-08-20T01:38:16.099Z,244.4878
2022-08-20T01:43:18.168Z,244.4878
2022-08-20T01:48:20.593Z,244.4878
2022-08-20T01:53:22.526Z,259.89744
2022-08-20T01:58:24.326Z,278.78261
2022-08-20T02:03:26.415Z,282.46154
2022-08-20T02:08:28.381Z,280.61202
2022-08-20T02:13:30.425Z,282.46154
2022-08-20T02:18:32.489Z,266.51309
2022-08-20T02:23:34.251Z,266.51309
2022-08-20T02:28:36.429Z,269.92593
2022-08-20T02:33:39.130Z,273.41176
2022-08-20T02:38:41.640Z,275.1828
2022-08-20T02:43:43.508Z,268.21053
2022-08-20T02:48:45.458Z,253.54774
2022-08-20T02:53:47.205Z,259.89744
2022-08-20T02:58:49.092Z,261.52577
2022-08-20T03:03:51.535Z,248.9505
2022-08-20T03:08:53.187Z,248.9505
2022-08-20T03:13:54.941Z,264.83333
2022-08-20T03:18:56.617Z,258.28571
2022-08-20T03:23:58.040Z,264.83333
2022-08-20T03:28:59.563Z,261.52577
2022-08-20T03:34:01.819Z,256.69036
2022-08-20T03:39:03.538Z,234.56604
2022-08-20T03:44:05.085Z,245.96078
2022-08-20T03:49:07.394Z,240.15385
2022-08-20T03:54:09.702Z,224
2022-08-20T03:59:11.945Z,219
2022-08-20T04:04:13.965Z,221.47748
2022-08-20T04:09:15.702Z,224
2022-08-20T04:14:19.639Z,229.18519
2022-08-20T04:19:22.758Z,227.87097
2022-08-20T04:24:31.648Z,230.51163
2022-08-20T04:29:35.328Z,227.87097
2022-08-20T04:34:37.697Z,222.73303
2022-08-20T04:39:39.597Z,217.77778
2022-08-20T04:44:41.480Z,207.24786
2022-08-20T04:49:42.994Z,198.54545
2022-08-20T04:54:44.853Z,176.45283
2022-08-20T04:59:46.934Z,200.66667
2022-08-20T05:04:49.217Z,209.51724
2022-08-20T05:09:50.979Z,203.91561
2022-08-20T05:14:52.419Z,207.24786
2022-08-20T05:19:54.198Z,206.12766
2022-08-20T05:24:55.961Z,210.66667
2022-08-20T05:29:57.701Z,207.24786
2022-08-20T05:35:02.348Z,215.36564
2022-08-20T05:40:03.997Z,215.36564
2022-08-20T05:45:11.082Z,227.87097
2022-08-20T05:50:23.214Z,225.27854
2022-08-20T05:55:25.799Z,231.85047
2022-08-20T06:00:28.300Z,234.56604
2022-08-20T06:05:30.935Z,243.02913
2022-08-20T06:10:33.286Z,243.02913
2022-08-20T06:15:35.427Z,245.96078
2022-08-20T06:20:37.256Z,258.28571
2022-08-20T06:25:39.006Z,245.96078
2022-08-20T06:30:40.771Z,259.89744
2022-08-20T06:35:42.999Z,288.13408
2022-08-20T06:40:45.133Z,298.02299
2022-08-20T06:45:47.097Z,302.13953
2022-08-20T06:50:49.286Z,306.35294
2022-08-20T06:55:51.287Z,296
2022-08-20T07:00:53.127Z,294
2022-08-20T07:05:55.730Z,278.78261
2022-08-20T07:10:57.207Z,298.02299
2022-08-20T07:15:58.790Z,296
2022-08-20T07:21:00.434Z,306.35294
2022-08-20T07:26:01.873Z,306.35294
2022-08-20T07:31:13.476Z,319.60976
2022-08-20T07:36:16.850Z,321.91411
2022-08-20T07:41:18.628Z,324.24691
2022-08-20T07:46:20.789Z,331.42138
2022-08-20T07:51:22.706Z,317.33333
2022-08-20T07:56:24.653Z,319.60976
2022-08-20T08:01:26.814Z,326.6087
2022-08-20T08:06:31.108Z,329
2022-08-20T08:11:33.472Z,363.04762
2022-08-20T08:16:35.023Z,380.87943
2022-08-20T08:21:36.618Z,384
2022-08-20T08:26:38.076Z,457.33333
2022-08-20T08:31:39.753Z,494
2022-08-20T08:36:41.637Z,470.49573
2022-08-20T08:41:43.211Z,461.64706
2022-08-20T08:46:44.649Z,457.33333
2022-08-20T08:51:46.473Z,560
2022-08-20T08:56:49.922Z,668.70588
2022-08-20T09:01:53.750Z,695.21951
2022-08-20T09:06:58.640Z,754.52632
2022-08-20T09:12:00.114Z,849.88235
2022-08-20T09:17:01.824Z,921.77778
2022-08-20T09:22:03.757Z,921.77778
2022-08-20T09:27:05.423Z,1024.70175
2022-08-20T09:32:06.929Z,1201.14286
2022-08-20T09:37:09.035Z,1755.76471
2022-08-20T09:42:10.562Z,1704
2022-08-20T09:47:12.000Z,1869
2022-08-20T09:52:13.684Z,1997.33333
2022-08-20T09:57:15.327Z,1869
2022-08-20T10:02:17.188Z,1484
2022-08-20T10:07:20.121Z,1565.05263
2022-08-20T10:12:21.867Z,1655.11111
2022-08-20T10:17:23.710Z,1523.48718
2022-08-20T10:22:25.690Z,1704
2022-08-20T10:27:27.463Z,1810.66667
2022-08-20T10:32:29.222Z,2313.23077
2022-08-20T10:37:32.072Z,2744
2022-08-20T10:42:33.953Z,2744
2022-08-20T10:47:36.132Z,3794
2022-08-20T10:52:38.204Z,4050.66667
2022-08-20T10:57:39.946Z,3794
2022-08-20T11:02:41.715Z,4050.66667
2022-08-20T11:07:50.695Z,4050.66667
2022-08-20T11:12:57.904Z,0
2022-08-20T11:17:59.593Z,4344
2022-08-20T11:23:01.375Z,0
2022-08-20T11:28:03.030Z,4682.46154
2022-08-20T11:33:04.648Z,0
2022-08-20T11:38:07.531Z,4344
2022-08-20T11:43:16.265Z,4682.46154
2022-08-20T11:48:18.966Z,0
2022-08-20T11:53:21.570Z,0
2022-08-20T11:58:24.001Z,0
2022-08-20T12:03:25.763Z,0
2022-08-20T12:08:28.291Z,0
2022-08-20T12:13:47.201Z,0
2022-08-20T12:18:50.145Z,0
2022-08-20T12:23:51.741Z,0
2022-08-20T12:28:53.332Z,0
2022-08-20T12:33:55.136Z,0
2022-08-20T12:38:57.866Z,0
2022-08-20T12:43:59.505Z,0
2022-08-20T12:49:01.383Z,0
2022-08-20T12:54:03.234Z,0
2022-08-20T12:59:04.999Z,4682.46154
2022-08-20T13:04:06.749Z,4344
2022-08-20T13:09:09.402Z,3366.22222
2022-08-20T13:14:11.306Z,3567.52941
2022-08-20T13:19:12.773Z,2622.26087
2022-08-20T13:24:14.680Z,3024
2022-08-20T13:29:17.384Z,2744
2022-08-20T13:34:19.270Z,2225.48148
2022-08-20T13:39:21.357Z,2068.13793
2022-08-20T13:44:31.340Z,1704
2022-08-20T13:49:35.066Z,1608.86486
2022-08-20T13:54:36.816Z,1704
2022-08-20T13:59:39.561Z,1755.76471
2022-08-20T14:04:41.674Z,1484
2022-08-20T14:09:43.603Z,1227.33333
2022-08-20T14:14:45.481Z,1128.61538
2022-08-20T14:19:47.336Z,1024.70175
2022-08-20T14:24:49.164Z,1084.74074
2022-08-20T14:29:51.238Z,1128.61538
2022-08-20T14:34:53.014Z,1106.26415
2022-08-20T14:39:55.079Z,921.77778
2022-08-20T14:44:56.918Z,937.54839
2022-08-20T14:49:58.380Z,906.5
2022-08-20T14:55:00.226Z,849.88235
2022-08-20T15:00:01.747Z,836.75362
2022-08-20T15:05:03.200Z,744
2022-08-20T15:10:09.392Z,714
2022-08-20T15:15:15.221Z,704.49383
2022-08-20T15:20:20.153Z,677.33333
2022-08-20T15:25:22.551Z,677.33333
2022-08-20T15:30:24.569Z,733.74359
2022-08-20T15:35:26.324Z,668.70588
2022-08-20T15:40:29.104Z,572.57143
2022-08-20T15:45:31.137Z,566.22222
2022-08-20T15:50:32.876Z,579.05155
2022-08-20T15:55:34.824Z,566.22222
2022-08-20T16:00:36.685Z,536.30769
2022-08-20T16:05:38.545Z,484.35088
2022-08-20T16:10:40.679Z,461.64706
2022-08-20T16:15:45.109Z,396.94118
2022-08-20T16:20:49.076Z,333.87342
2022-08-20T16:25:50.731Z,276.97297
2022-08-20T16:30:52.662Z,304.23392
2022-08-20T16:35:54.357Z,365.91781
2022-08-20T16:40:56.182Z,387.16547
2022-08-20T16:45:57.647Z,360.21622
2022-08-20T16:50:59.229Z,215.36564
2022-08-20T16:56:00.682Z,247.44828
2022-08-20T17:01:02.298Z,315.08434
2022-08-20T17:06:04.086Z,324.24691
2022-08-20T17:11:05.856Z,326.6087
2022-08-20T17:16:07.303Z,226.56881
2022-08-20T17:21:08.841Z,237.33333
2022-08-20T17:26:10.402Z,247.44828
2022-08-20T17:31:11.953Z,211.82609
2022-08-20T17:36:13.590Z,237.33333
2022-08-20T17:41:17.490Z,284.33149
2022-08-20T17:46:19.555Z,298.02299
2022-08-20T17:51:21.317Z,298.02299
2022-08-20T17:56:23.118Z,268.21053
2022-08-20T18:01:24.914Z,275.1828
2022-08-20T18:06:30.472Z,278.78261
2022-08-20T18:11:32.896Z,224
2022-08-20T18:16:34.745Z,182.75969
2022-08-20T18:21:36.468Z,160.14035
2022-08-20T18:26:38.525Z,160.14035
2022-08-20T18:31:41.671Z,171.30627
2022-08-20T18:36:43.654Z,163.21708
2022-08-20T18:41:45.694Z,165.58273
2022-08-20T18:46:47.655Z,157.88889
2022-08-20T18:51:49.634Z,158.63415
2022-08-20T18:56:51.627Z,173.85075
2022-08-20T19:01:53.464Z,214.17544
2022-08-20T19:06:57.631Z,235.94313
2022-08-20T19:11:59.763Z,240.15385
2022-08-20T19:17:01.307Z,252
2022-08-20T19:22:03.074Z,271.65957
2022-08-20T19:27:04.794Z,201.74059
2022-08-20T19:32:06.580Z,160.90141
2022-08-20T19:37:28.096Z,160.14035
2022-08-20T19:42:40.405Z,202.82353
2022-08-20T19:47:41.868Z,230.51163
2022-08-20T19:52:43.313Z,243.02913
2022-08-20T19:57:45.299Z,259.89744
2022-08-20T20:02:46.742Z,258.28571
2022-08-20T20:07:48.169Z,259.89744
2022-08-20T20:12:49.925Z,271.65957
2022-08-20T20:17:51.496Z,256.69036
2022-08-20T20:22:53.146Z,198.54545
2022-08-20T20:27:54.723Z,202.82353
2022-08-20T20:32:56.440Z,216.56637
2022-08-20T20:37:58.014Z,212.99563
2022-08-20T20:42:59.780Z,216.56637
2022-08-20T20:48:01.899Z,212.99563
2022-08-20T20:53:03.663Z,219
2022-08-20T20:58:05.539Z,235.94313
2022-08-20T21:03:07.050Z,241.58454
2022-08-20T21:08:08.790Z,248.9505
2022-08-20T21:13:10.968Z,252
2022-08-20T21:18:12.481Z,233.20188
2022-08-20T21:23:14.094Z,243.02913
2022-08-20T21:28:15.718Z,245.96078
2022-08-20T21:33:17.356Z,256.69036
2022-08-20T21:38:18.957Z,244.4878
2022-08-20T21:43:21.072Z,235.94313
2022-08-20T21:48:22.523Z,225.27854
2022-08-20T21:53:24.042Z,231.85047
2022-08-20T21:58:25.490Z,225.27854
2022-08-20T22:03:26.967Z,216.56637
2022-08-20T22:08:28.755Z,216.56637
2022-08-20T22:13:30.680Z,219
2022-08-20T22:18:32.623Z,216.56637
2022-08-20T22:23:34.413Z,211.82609
2022-08-20T22:28:36.241Z,207.24786
2022-08-20T22:33:38.804Z,206.12766
2022-08-20T22:38:40.556Z,201.74059
2022-08-20T22:43:52.156Z,202.82353
2022-08-20T22:48:59.451Z,196.45902
2022-08-20T22:54:00.905Z,199.60166
2022-08-20T22:59:02.539Z,194.4065
2022-08-20T23:04:05.122Z,199.60166
2022-08-20T23:09:06.533Z,210.66667
2022-08-20T23:14:08.823Z,233.20188
2022-08-20T23:19:10.563Z,244.4878
2022-08-20T23:24:14.105Z,247.44828
2022-08-20T23:29:16.282Z,252
2022-08-20T23:34:27.873Z,258.28571
2022-08-20T23:39:29.534Z,258.28571
2022-08-20T23:44:31.504Z,256.69036
2022-08-20T23:49:33.445Z,241.58454
2022-08-20T23:54:35.318Z,234.56604
2022-08-20T23:59:37.207Z,231.85047
